PAMRPATK

Guest
Details From PAMR - Merrill Fld
To PATK - TALKEETNA
Flight Number -
Tags generated
Created
Modified
Stats Distance 67 nm / 124 km
Max Altitude 3,200 ft / 975 m
Waypoints 4
Social Downloads 0
Likes 0
Share VATSIM

Download

Looking for another format? Having issues loading an existing format? Contact us
Advertisement - Login to hide

Notes

Basic altitude profile: - Ascent Rate: 2500ft/min - Ascent Speed: 250kts - Cruise Altitude: 35000ft - Cruise Speed: 420kts - Descent Rate: 1500ft/min - Descent Speed: 250kts Options: - Use NATs: yes - Use PACOTS: yes - Use low airways: yes - Use high airways: yes

Route

PAMR URTOW V491 TKA PATK

ID Type Via Altitude Latitude Longitude Leg Dist Tot Dist Heading (true) Name
O PAMR APT - 0 ft / 0 m 61.21292˚ -149.84481˚ - 0 nm - Merrill Fld
URTOW FIX - 3,200 ft / 975 m 62.06695˚ -150.06091˚ 51 nm 51 nm 353° / 353° -
TKA VOR V491 (AWY-LO) 3,000 ft / 914 m 62.29867˚ -150.10558˚ 13 nm 65 nm 355° / 355° TALKEETNA VOR-DME
O PATK APT - 0 ft / 0 m 62.32051˚ -150.09369˚ 1 nm 66 nm 14° / 14° TALKEETNA

Altitude Profile

Advertisement - Login to hide

PAMR

Details ICAO PAMR (MRI)
Name Merrill Fld
Region USA (Alaska)
Timezone America/Anchorage (UTC-9.0)
Stats Elevation 137 ft / 42 m (AMSL)
Location 61.212917° -149.844813°
Runways 3
Magnetic Variation 16.279° E

METAR

PAMR 141253Z 00000KT 10SM CLR M02/M03 A2961 RMK AO2 SLP029 T10221028

Decode

TAF

Not found

Departure Runways

ID Width Length Bearing (true) Bearing (mag) Surface Threshold Offset Overrun Length
04 60 ft / 18 m 1,994 ft / 608 m 66.10° 49.82° Gravel 0 ft / 0 m 0 ft / 0 m
07 100 ft / 30 m 3,986 ft / 1,215 m 90.01° 73.73° Asphalt 0 ft / 0 m 0 ft / 0 m
16 75 ft / 23 m 2,635 ft / 803 m 180.03° 163.75° Asphalt 0 ft / 0 m 0 ft / 0 m
22 60 ft / 18 m 1,994 ft / 608 m 246.11° 229.83° Gravel 0 ft / 0 m 0 ft / 0 m
25 100 ft / 30 m 3,986 ft / 1,215 m 270.03° 253.75° Asphalt 0 ft / 0 m 0 ft / 0 m
34 75 ft / 23 m 2,635 ft / 803 m 0.03° 343.75° Asphalt 0 ft / 0 m 0 ft / 0 m

PATK

Details ICAO PATK (TKA)
Name TALKEETNA
Region USA (Alaska)
Timezone America/Anchorage (UTC-9.0)
Stats Elevation 358 ft / 109 m (AMSL)
Location 62.320512° -150.093685°
Runways 1
Magnetic Variation 16.356° E

METAR

PATK 141253Z AUTO 00000KT 10SM CLR M06/M07 A2963 RMK AO2 SLP041 T10561072 TSNO $

Decode

TAF

PATK 141148Z 1412/1512 02004KT P6SM SCT060 FM150400 VRB03KT P6SM VCSH SCT035 OVC060

Decode

Destination Runways

ID Width Length Bearing (true) Bearing (mag) Surface Threshold Offset Overrun Length
18 75 ft / 23 m 3,503 ft / 1,068 m 207.01° 190.65° Asphalt 0 ft / 0 m 0 ft / 0 m
36 75 ft / 23 m 3,503 ft / 1,068 m 27.01° 10.65° Asphalt 0 ft / 0 m 0 ft / 0 m

Popular Alternatives